With the market sense app you can inspect and search through your Inventory. It's an easy way to make space, organize yourself and find out if you have any useful items you forgot about. Also don't forget to check out how to get Sales Notifications sent to your discord account by clicking here.

True Linen Trousers of Striking

Server: Exodus

DataCenter Prices
Last Updated: 5/20/19 7:32:53 PM
Search Category: Legs, Item Category: Legs
Sell price to vendor: 1624

Garland Link

1 350,000 350,000 0 0 0 1

Level 70 Weaver Recipe for True Linen Trousers of Striking

Wind Cluster 2 97 194
Lightning Cluster 2 46 92
Palladium Nugget 1 2,499 2,499
Everdeep Aethersand 3 3,900 11,700
Grade 3 Reisui of Strength 2 20,000 40,000
Ground Sloth Leather 2 9,900 19,800
True Linen 2 17,000 34,000

Total Price to Craft 1 : 108,285

Profit/Loss Normal = 0

Profit/Loss HQ = 241,715

Current Prices

HQ 350,000 1 350,000

Price History

HQ 552,123 1 552,123 Herian Aris 04/07/2018 08:19:38 131675627780000000
HQ 554,500 1 554,500 Dorian V'esco 04/07/2018 12:58:09 131675794890000000
HQ 554,500 1 554,500 Panzer Zerstorer 04/08/2018 03:10:36 131676306360000000
HQ 548,123 1 548,123 Cadence Faye 04/08/2018 20:05:38 131676915380000000
HQ 548,123 1 548,123 Nona Grey 04/09/2018 04:23:39 131677214190000000
HQ 549,750 1 549,750 Zeota Fourier 04/09/2018 21:01:19 131677812790000000
HQ 540,123 1 540,123 Nheu Mhakaracca 04/10/2018 23:23:07 131678761870000000
HQ 538,123 1 538,123 Anna Darkthistle 04/12/2018 13:49:24 131680145640000000
HQ 506,000 1 506,000 Kai Ceres 04/14/2018 03:20:40 131681496400000000
HQ 425,000 1 425,000 Wreyth Duskwalker 04/14/2018 18:37:28 131682046480000000
HQ 442,000 1 442,000 Hollowcore Knight 04/15/2018 00:43:11 131682265910000000
HQ 442,000 1 442,000 Gary Lied 04/15/2018 04:36:31 131682405910000000
HQ 400,123 1 400,123 William Hartnell 04/16/2018 14:02:56 131683609760000000
HQ 439,000 1 439,000 John London 04/17/2018 04:41:31 131684136910000000
HQ 402,000 1 402,000 Dorian V'esco 04/18/2018 02:08:41 131684909210000000
HQ 389,000 1 389,000 Shin Kamiya 04/18/2018 20:53:24 131685584040000000
HQ 364,000 1 364,000 Akira Fukui 04/19/2018 22:30:52 131686506520000000
HQ 394,000 1 394,000 Quistis Aldenhart 04/21/2018 21:24:42 131688194820000000
HQ 389,000 1 389,000 Tuggwenn Youpull 04/22/2018 19:47:45 131689000650000000
HQ 388,000 1 388,000 Ailita Asura 04/23/2018 07:25:43 131689419430000000
HQ 459,000 1 459,000 Katalytik Schizm 06/23/2018 01:09:29 131741897690000000
HQ 440,000 1 440,000 Fafaku Faku 06/23/2018 17:08:59 131742473390000000
HQ 424,000 1 424,000 Gena Tools 06/24/2018 01:01:44 131742757040000000
HQ 405,000 1 405,000 Ravanna Seasong 06/24/2018 06:20:41 131742948410000000
HQ 446,900 1 446,900 Simon Mason 06/24/2018 18:46:34 131743395940000000
HQ 476,000 1 476,000 Aoi Degger 06/25/2018 22:57:56 131744410760000000
HQ 398,000 1 398,000 Rhaq'a Riobren 06/27/2018 01:42:20 131745373400000000
HQ 398,900 1 398,900 Ryuu Alucard 06/27/2018 06:04:16 131745530560000000
HQ 398,999 1 398,999 Kafra Atreides 06/27/2018 10:10:02 131745678020000000
HQ 398,000 1 398,000 Violet Love' 06/27/2018 23:10:12 131746146120000000
HQ 398,000 1 398,000 Squalll Blaze 06/29/2018 06:26:48 131747272080000000
HQ 390,000 1 390,000 Heathcliff Arts 07/02/2018 12:07:44 131750068640000000
HQ 376,000 1 376,000 Kamui Argonaut 07/04/2018 04:58:09 131751538890000000
HQ 376,900 1 376,900 Erin Mckat 07/04/2018 14:52:41 131751895610000000
HQ 377,000 1 377,000 Ex'ar Khan 07/04/2018 16:15:18 131751945180000000
HQ 358,000 1 358,000 Sir Marquis 07/06/2018 15:28:00 131753644800000000
HQ 358,000 1 358,000 Naeli Xevaria 07/06/2018 21:16:36 131753853960000000
HQ 358,123 1 358,123 Az Ryal 07/07/2018 00:20:45 131753964450000000
HQ 359,000 1 359,000 Athena Anemotidos 07/07/2018 08:09:34 131754245740000000
HQ 362,000 1 362,000 La Bible 07/08/2018 23:23:02 131755657820000000
HQ 359,900 1 359,900 Javon Carter 07/10/2018 02:29:15 131756633550000000
HQ 357,999 1 357,999 Grim Hellsaw 07/10/2018 18:41:50 131757217100000000
HQ 356,900 1 356,900 Ganzorig Beefwhistle 07/11/2018 01:15:19 131757453190000000
HQ 397,900 1 397,900 Neko Mew 07/12/2018 03:57:22 131758414420000000
HQ 398,000 1 398,000 Mr Miagi' 07/12/2018 04:22:37 131758429570000000
HQ 398,999 1 398,999 Smoke Haze 07/12/2018 13:48:30 131758769100000000
HQ 388,999 1 388,999 Tucker Wyor 07/13/2018 15:44:37 131759702770000000
HQ 387,000 1 387,000 Hikari Reiki 07/14/2018 05:40:42 131760204420000000
HQ 370,000 1 370,000 Kaoru Mirajkar 07/15/2018 04:41:44 131761033040000000
HQ 369,900 1 369,900 Sanare Omnes 07/15/2018 14:40:53 131761392530000000
HQ 435,787 1 435,787 Aldruth Hunt 08/25/2018 22:01:04 131797080640000000
HQ 470,900 1 470,900 Kimiko Oroshima 08/26/2018 02:21:13 131797236730000000
HQ 455,000 1 455,000 Radil Songstryke 08/26/2018 14:54:43 131797688830000000
HQ 454,999 1 454,999 Rico Vonsuave 08/27/2018 21:23:46 131798786260000000
HQ 455,000 1 455,000 Kaede Buhen 08/31/2018 01:48:01 131801536810000000
HQ 445,000 1 445,000 Krono Ragnarok 09/03/2018 02:52:43 131804167630000000
HQ 445,000 1 445,000 Dom Raiu 09/03/2018 18:53:35 131804744150000000
HQ 455,123 1 455,123 Mylerra Rush 09/06/2018 17:19:51 131807279910000000
HQ 800,000 1 800,000 Prettie Ricky 09/08/2018 08:51:46 131808703060000000
HQ 800,000 1 800,000 Willow Amarth 09/09/2018 01:45:23 131809311230000000
HQ 767,000 1 767,000 Greyflood Mitheithel 09/09/2018 20:11:50 131809975100000000
HQ 768,000 1 768,000 Alpha Augusta 09/10/2018 05:13:16 131810299960000000
HQ 659,999 1 659,999 Nano Monano 09/11/2018 15:00:06 131811516060000000
HQ 594,000 1 594,000 Dragon Queen 09/13/2018 15:49:25 131813273650000000
HQ 594,000 1 594,000 Ace Jamaica 09/15/2018 16:00:12 131815008120000000
HQ 499,000 1 499,000 Ella Faelynn 09/16/2018 03:12:28 131815411480000000
HQ 594,000 1 594,000 Ciren Daikon 09/16/2018 04:32:37 131815459570000000
HQ 359,000 1 359,000 Aria Kar'tah 09/18/2018 22:58:02 131817850820000000
HQ 360,000 1 360,000 Sheilagh Roark 09/22/2018 00:35:14 131820501140000000
HQ 360,000 1 360,000 Genova Cirrus 09/22/2018 13:38:03 131820970830000000
HQ 350,000 1 350,000 Jack Gad 03/23/2019 21:58:36 131978519160000000

Exodus Cross Server Data for True Linen Trousers of Striking on Primal

Behemoth 0 0 0 0 0 0 0 0 0 2/17/19 12:51:07 AM
Excalibur 400,000 1 400,000 0 0 0 0 0 0 4/24/19 9:11:56 AM
Exodus 350,000 1 350,000 0 0 0 0 0 0 5/20/19 7:32:53 PM
Famfrit 0 0 0 0 0 0 0 0 0 2/17/19 5:05:46 PM
Hyperion 0 0 0 0 0 0 0 0 1 10/3/18 7:16:08 PM
Lamia 225,000 3 225,000 0 0 0 0 0 0 4/12/19 5:31:53 PM
Leviathan 399,999 1 399,999 0 0 -399,999 0 0 1 5/2/19 9:30:43 AM
Ultros 0 0 0 0 0 0 0 0 0 2/11/19 4:34:05 PM
HQ
i

Requests for True Linen Trousers of Striking

Click for Discord- Item Requests